createdAt,value
2023-05-16T00:00:41.938Z,99894.63
2023-05-16T00:05:43.233Z,99902.03
2023-05-16T00:10:44.622Z,99912.47
2023-05-16T00:15:46.012Z,99905.91
2023-05-16T00:20:48.241Z,99910.28
2023-05-16T00:25:49.673Z,99896.22
2023-05-16T00:30:51.013Z,99896.53
2023-05-16T00:35:53.657Z,99901.88
2023-05-16T00:40:55.014Z,99910.28
2023-05-16T00:45:57.921Z,99903.22
2023-05-16T00:51:00.367Z,99900.88
2023-05-16T00:56:01.995Z,99887.75
2023-05-16T01:01:07.988Z,99898.63
2023-05-16T01:06:09.613Z,99891.41
2023-05-16T01:11:31.039Z,99816.16
2023-05-16T01:16:59.671Z,99877.75
2023-05-16T01:22:34.275Z,99907.56
2023-05-16T01:27:35.922Z,99921.38
2023-05-16T01:32:37.225Z,99874.47
2023-05-16T01:37:48.692Z,99914.66
2023-05-16T01:42:54.705Z,99919.19
2023-05-16T01:48:06.030Z,99911.81
2023-05-16T01:53:12.005Z,99886.94
2023-05-16T01:58:19.036Z,99913.63
2023-05-16T02:03:20.372Z,99907.63
2023-05-16T02:08:21.846Z,99920.78
2023-05-16T02:13:23.212Z,99920.47
2023-05-16T02:18:24.657Z,99920.97
2023-05-16T02:23:25.933Z,99908.72
2023-05-16T02:28:27.251Z,99922.78
2023-05-16T02:33:29.022Z,99928.44
2023-05-16T02:38:30.404Z,99918.69
2023-05-16T02:43:32.015Z,99921.06
2023-05-16T02:48:33.350Z,99930.13
2023-05-16T02:53:34.659Z,99939.28
2023-05-16T02:58:36.059Z,99931.75
2023-05-16T03:03:37.713Z,99926.13
2023-05-16T03:08:39.299Z,99904.44
2023-05-16T03:13:41.564Z,99947.81
2023-05-16T03:18:43.226Z,99949.13
2023-05-16T03:23:44.588Z,99938.69
2023-05-16T03:28:45.959Z,99955.53
2023-05-16T03:33:47.259Z,99944.44
2023-05-16T03:38:48.732Z,99954.03
2023-05-16T03:43:50.135Z,99961.31
2023-05-16T03:48:51.614Z,99953.38
2023-05-16T03:53:52.875Z,99947.56
2023-05-16T03:58:54.336Z,99942.38
2023-05-16T04:03:55.612Z,99945.25
2023-05-16T04:08:56.932Z,99972.25
2023-05-16T04:13:59.524Z,99956.66
2023-05-16T04:19:01.180Z,99960.25
2023-05-16T04:24:02.607Z,99963.00
2023-05-16T04:29:03.972Z,99977.22
2023-05-16T04:34:05.874Z,99975.44
2023-05-16T04:39:08.694Z,99989.97
2023-05-16T04:44:11.230Z,99988.38
2023-05-16T04:49:12.828Z,99983.50
2023-05-16T04:54:14.578Z,99981.13
2023-05-16T04:59:15.955Z,99999.09
2023-05-16T05:04:17.719Z,99997.19
2023-05-16T05:09:19.228Z,100006.19
2023-05-16T05:14:21.604Z,100015.09
2023-05-16T05:19:23.189Z,100025.19
2023-05-16T05:24:24.529Z,100033.38
2023-05-16T05:29:26.158Z,100040.94
2023-05-16T05:34:27.424Z,100040.09
2023-05-16T05:39:28.746Z,100047.91
2023-05-16T05:44:30.690Z,100038.78
2023-05-16T05:49:32.586Z,100051.03
2023-05-16T05:54:33.967Z,100055.75
2023-05-16T05:59:35.574Z,100071.53
2023-05-16T06:04:36.954Z,100068.78
2023-05-16T06:09:38.451Z,100081.66
2023-05-16T06:14:39.935Z,100084.41
2023-05-16T06:19:41.432Z,100084.00
2023-05-16T06:24:42.998Z,100104.22
2023-05-16T06:29:44.366Z,100111.25
2023-05-16T06:34:45.678Z,100107.34
2023-05-16T06:39:47.133Z,100125.50
2023-05-16T06:44:48.589Z,100124.69
2023-05-16T06:49:50.862Z,100128.34
2023-05-16T06:54:52.708Z,100132.00
2023-05-16T06:59:54.145Z,100142.81
2023-05-16T07:04:55.678Z,100134.97
2023-05-16T07:09:56.997Z,100157.41
2023-05-16T07:14:58.413Z,100166.59
2023-05-16T07:20:01.825Z,100168.06
2023-05-16T07:25:05.799Z,100161.16
2023-05-16T07:30:09.785Z,100170.66
2023-05-16T07:35:11.373Z,100175.78
2023-05-16T07:40:13.201Z,100178.09
2023-05-16T07:45:14.850Z,100192.63
2023-05-16T07:50:16.361Z,100207.31
2023-05-16T07:55:17.818Z,100198.47
2023-05-16T08:00:20.152Z,100222.84
2023-05-16T08:05:21.824Z,100235.66
2023-05-16T08:10:26.321Z,100247.91
2023-05-16T08:15:28.618Z,100259.72
2023-05-16T08:20:30.508Z,100267.22
2023-05-16T08:25:32.063Z,100272.13
2023-05-16T08:30:33.563Z,100280.75
2023-05-16T08:35:35.513Z,100270.56
2023-05-16T08:40:36.933Z,100276.34
2023-05-16T08:45:40.152Z,100303.09
2023-05-16T08:50:42.906Z,100300.13
2023-05-16T08:55:45.609Z,100289.03
2023-05-16T09:00:47.965Z,100293.81
2023-05-16T09:05:50.004Z,100297.75
2023-05-16T09:10:51.325Z,100308.03
2023-05-16T09:16:13.069Z,100307.75
2023-05-16T09:21:15.766Z,100291.28
2023-05-16T09:26:18.776Z,100304.09
2023-05-16T09:31:26.685Z,100307.47
2023-05-16T09:36:28.311Z,100296.66
2023-05-16T09:41:34.162Z,100313.47
2023-05-16T09:46:37.527Z,100298.31
2023-05-16T09:51:41.259Z,100309.84
2023-05-16T09:56:50.859Z,100309.44
2023-05-16T10:01:53.123Z,100314.94
2023-05-16T10:06:58.989Z,100304.19
2023-05-16T10:12:07.077Z,100301.97
2023-05-16T10:17:12.616Z,100298.56
2023-05-16T10:22:16.515Z,100311.81
2023-05-16T10:27:19.432Z,100312.25
2023-05-16T10:32:23.364Z,100307.03
2023-05-16T10:37:25.625Z,100289.28
2023-05-16T10:42:27.024Z,100311.94
2023-05-16T10:47:28.467Z,100305.53
2023-05-16T10:52:35.456Z,100309.19
2023-05-16T10:57:37.006Z,100291.03
2023-05-16T11:02:41.785Z,100299.53
2023-05-16T11:07:43.948Z,100311.47
2023-05-16T11:12:48.534Z,100324.66
2023-05-16T11:18:03.290Z,100324.50
2023-05-16T11:23:17.397Z,100326.81
2023-05-16T11:28:22.557Z,100321.22
2023-05-16T11:33:25.052Z,100298.88
2023-05-16T11:38:27.843Z,100322.63
2023-05-16T11:43:29.242Z,100299.50
2023-05-16T11:48:36.255Z,100329.75
2023-05-16T11:53:38.560Z,100312.44
2023-05-16T11:58:40.073Z,100341.06
2023-05-16T12:03:41.968Z,100313.47
2023-05-16T12:08:50.607Z,100311.63
2023-05-16T12:13:52.667Z,100312.69
2023-05-16T12:18:54.312Z,100300.47
2023-05-16T12:23:58.368Z,100306.78
2023-05-16T12:29:03.209Z,100308.97
2023-05-16T12:34:04.667Z,100310.59
2023-05-16T12:39:06.049Z,100269.81
2023-05-16T12:44:13.204Z,100295.50
2023-05-16T12:49:14.837Z,100312.34
2023-05-16T12:54:16.782Z,100308.63
2023-05-16T12:59:19.905Z,100298.88
2023-05-16T13:04:22.935Z,100326.47
2023-05-16T13:09:24.419Z,100313.34
2023-05-16T13:14:25.750Z,100317.03
2023-05-16T13:19:27.306Z,100325.47
2023-05-16T13:24:28.976Z,100313.69
2023-05-16T13:29:30.707Z,100315.69
2023-05-16T13:34:32.193Z,100316.72
2023-05-16T13:39:33.579Z,100334.41
2023-05-16T13:44:34.946Z,100330.84
2023-05-16T13:49:36.357Z,100312.69
2023-05-16T13:54:39.585Z,100321.09
2023-05-16T14:04:46.726Z,100323.44
2023-05-16T14:09:49.108Z,100328.66
2023-05-16T14:14:50.516Z,100335.44
2023-05-16T14:19:52.571Z,100338.41
2023-05-16T14:24:53.896Z,100330.69
2023-05-16T14:29:56.009Z,100341.94
2023-05-16T14:34:57.369Z,100329.66
2023-05-16T14:39:59.629Z,100342.28
2023-05-16T14:45:01.440Z,100322.25
2023-05-16T14:50:02.892Z,100356.38
2023-05-16T14:55:04.965Z,100325.44
2023-05-16T15:00:07.457Z,100357.06
2023-05-16T15:05:09.823Z,100338.22
2023-05-16T15:10:11.697Z,100346.81
2023-05-16T15:15:14.938Z,100348.28
2023-05-16T15:20:18.721Z,100319.16
2023-05-16T15:25:21.849Z,100361.41
2023-05-16T15:30:23.437Z,100356.03
2023-05-16T15:35:24.954Z,100338.81
2023-05-16T15:40:27.273Z,100346.00
2023-05-16T15:45:29.191Z,100340.84
2023-05-16T15:50:31.109Z,100331.81
2023-05-16T15:55:32.486Z,100326.88
2023-05-16T16:00:33.950Z,100358.22
2023-05-16T16:05:35.678Z,100340.38
2023-05-16T16:10:37.008Z,100334.84
2023-05-16T16:15:39.331Z,100340.97
2023-05-16T16:20:40.869Z,100317.16
2023-05-16T16:25:42.332Z,100346.09
2023-05-16T16:30:44.806Z,100340.38
2023-05-16T16:35:46.279Z,100338.78
2023-05-16T16:40:47.604Z,100344.53
2023-05-16T16:45:49.576Z,100347.63
2023-05-16T16:50:52.113Z,100337.28
2023-05-16T16:55:53.465Z,100325.94
2023-05-16T17:00:54.789Z,100325.31
2023-05-16T17:05:56.220Z,100334.97
2023-05-16T17:10:59.760Z,100329.25
2023-05-16T17:16:01.450Z,100352.63
2023-05-16T17:21:02.945Z,100351.41
2023-05-16T17:26:04.404Z,100351.13
2023-05-16T17:31:05.831Z,100335.09
2023-05-16T17:36:07.856Z,100371.25
2023-05-16T17:41:09.234Z,100382.13
2023-05-16T17:46:10.847Z,100367.66
2023-05-16T17:51:12.224Z,100397.38
2023-05-16T17:56:14.059Z,100362.19
2023-05-16T18:01:15.480Z,100387.47
2023-05-16T18:06:17.004Z,100389.19
2023-05-16T18:11:18.654Z,100365.00
2023-05-16T18:16:20.287Z,100394.16
2023-05-16T18:21:21.689Z,100387.78
2023-05-16T18:26:23.148Z,100388.84
2023-05-16T18:31:24.810Z,100404.09
2023-05-16T18:36:26.213Z,100413.13
2023-05-16T18:41:27.700Z,100423.09
2023-05-16T18:46:29.089Z,100435.66
2023-05-16T18:51:30.700Z,100423.84
2023-05-16T18:56:32.348Z,100448.91
2023-05-16T19:01:34.269Z,100444.81
2023-05-16T19:06:35.601Z,100458.91
2023-05-16T19:11:37.412Z,100467.81
2023-05-16T19:16:38.747Z,100472.91
2023-05-16T19:21:40.062Z,100480.31
2023-05-16T19:26:41.558Z,100497.34
2023-05-16T19:31:42.927Z,100492.63
2023-05-16T19:36:44.389Z,100513.78
2023-05-16T19:41:47.747Z,100517.63
2023-05-16T19:46:54.203Z,100530.34
2023-05-16T19:51:55.723Z,100519.66
2023-05-16T19:56:57.044Z,100540.13
2023-05-16T20:01:59.684Z,100558.16
2023-05-16T20:07:01.243Z,100556.91
2023-05-16T20:12:03.278Z,100575.53
2023-05-16T20:17:04.674Z,100573.38
2023-05-16T20:22:05.993Z,100576.19
2023-05-16T20:27:07.366Z,100599.19
2023-05-16T20:32:08.873Z,100603.41
2023-05-16T20:37:10.264Z,100592.97
2023-05-16T20:42:11.860Z,100600.56
2023-05-16T20:47:13.989Z,100602.38
2023-05-16T20:52:15.447Z,100622.56
2023-05-16T20:57:17.656Z,100614.06
2023-05-16T21:02:19.032Z,100632.66
2023-05-16T21:07:21.430Z,100616.75
2023-05-16T21:12:22.802Z,100635.91
2023-05-16T21:17:24.144Z,100627.50
2023-05-16T21:22:25.538Z,100632.28
2023-05-16T21:27:27.473Z,100647.66
2023-05-16T21:32:32.204Z,100648.66
2023-05-16T21:37:33.876Z,100630.50
2023-05-16T21:42:36.217Z,100654.06
2023-05-16T21:47:37.577Z,100645.16
2023-05-16T21:52:39.784Z,100665.72
2023-05-16T21:57:41.237Z,100661.47
2023-05-16T22:02:42.785Z,100671.72
2023-05-16T22:07:44.282Z,100653.81
2023-05-16T22:12:45.668Z,100668.84
2023-05-16T22:17:48.576Z,100631.09
2023-05-16T22:22:50.887Z,100666.28
2023-05-16T22:27:52.330Z,100667.81
2023-05-16T22:32:54.600Z,100663.44
2023-05-16T22:37:56.018Z,100678.25
2023-05-16T22:42:57.454Z,100661.41
2023-05-16T22:47:58.914Z,100659.66
2023-05-16T22:53:00.309Z,100679.78
2023-05-16T22:58:01.833Z,100661.78
2023-05-16T23:03:03.329Z,100677.03
2023-05-16T23:08:05.188Z,100689.06
2023-05-16T23:13:06.561Z,100681.94
2023-05-16T23:18:08.100Z,100681.72
2023-05-16T23:23:09.568Z,100690.09
2023-05-16T23:28:10.962Z,100692.50
2023-05-16T23:33:14.105Z,100698.22
2023-05-16T23:38:15.822Z,100694.75
2023-05-16T23:43:17.200Z,100691.47
2023-05-16T23:48:18.673Z,100707.34
2023-05-16T23:53:21.051Z,100703.75
2023-05-16T23:58:22.455Z,100708.72
